sensor_id;sensor_type;location;lat;lon;timestamp;P1;durP1;ratioP1;P2;durP2;ratioP2
19621;SDS011;9958;33.196;-97.114;2023-05-15T00:01:45;5.32;;;4.20;;
19621;SDS011;9958;33.196;-97.114;2023-05-15T00:04:13;7.03;;;4.32;;
19621;SDS011;9958;33.196;-97.114;2023-05-15T00:06:42;4.90;;;3.97;;
19621;SDS011;9958;33.196;-97.114;2023-05-15T00:09:12;5.70;;;4.13;;
19621;SDS011;9958;33.196;-97.114;2023-05-15T00:11:40;5.13;;;3.70;;
19621;SDS011;9958;33.196;-97.114;2023-05-15T00:14:08;4.43;;;3.78;;
19621;SDS011;9958;33.196;-97.114;2023-05-15T00:16:37;4.80;;;4.22;;
19621;SDS011;9958;33.196;-97.114;2023-05-15T00:19:05;4.68;;;4.07;;
19621;SDS011;9958;33.196;-97.114;2023-05-15T00:21:33;5.63;;;4.05;;
19621;SDS011;9958;33.196;-97.114;2023-05-15T00:24:02;7.40;;;4.53;;
19621;SDS011;9958;33.196;-97.114;2023-05-15T00:26:32;4.68;;;4.03;;
19621;SDS011;9958;33.196;-97.114;2023-05-15T00:29:01;8.38;;;5.10;;
19621;SDS011;9958;33.196;-97.114;2023-05-15T00:31:29;5.97;;;4.60;;
19621;SDS011;9958;33.196;-97.114;2023-05-15T00:33:58;5.82;;;4.53;;
19621;SDS011;9958;33.196;-97.114;2023-05-15T00:36:26;8.38;;;4.88;;
19621;SDS011;9958;33.196;-97.114;2023-05-15T00:38:55;6.88;;;4.80;;
19621;SDS011;9958;33.196;-97.114;2023-05-15T00:41:23;7.05;;;4.90;;
19621;SDS011;9958;33.196;-97.114;2023-05-15T00:43:54;8.30;;;4.90;;
19621;SDS011;9958;33.196;-97.114;2023-05-15T00:46:24;5.40;;;4.07;;
19621;SDS011;9958;33.196;-97.114;2023-05-15T00:48:54;4.95;;;4.28;;
19621;SDS011;9958;33.196;-97.114;2023-05-15T00:51:23;6.35;;;4.50;;
19621;SDS011;9958;33.196;-97.114;2023-05-15T00:53:52;5.65;;;5.15;;
19621;SDS011;9958;33.196;-97.114;2023-05-15T00:56:21;5.22;;;4.43;;
19621;SDS011;9958;33.196;-97.114;2023-05-15T00:58:50;6.05;;;4.95;;
19621;SDS011;9958;33.196;-97.114;2023-05-15T01:01:21;8.93;;;5.20;;
19621;SDS011;9958;33.196;-97.114;2023-05-15T01:03:50;6.35;;;4.90;;
19621;SDS011;9958;33.196;-97.114;2023-05-15T01:06:19;5.90;;;4.10;;
19621;SDS011;9958;33.196;-97.114;2023-05-15T01:08:48;6.63;;;4.97;;
19621;SDS011;9958;33.196;-97.114;2023-05-15T01:11:17;7.40;;;5.15;;
19621;SDS011;9958;33.196;-97.114;2023-05-15T01:13:45;6.15;;;5.25;;
19621;SDS011;9958;33.196;-97.114;2023-05-15T01:16:14;7.15;;;5.15;;
19621;SDS011;9958;33.196;-97.114;2023-05-15T01:18:44;5.47;;;4.70;;
19621;SDS011;9958;33.196;-97.114;2023-05-15T01:24:24;6.30;;;5.55;;
19621;SDS011;9958;33.196;-97.114;2023-05-15T01:27:19;7.10;;;5.28;;
19621;SDS011;9958;33.196;-97.114;2023-05-15T01:29:54;7.70;;;5.60;;
19621;SDS011;9958;33.196;-97.114;2023-05-15T01:32:28;8.20;;;5.82;;
19621;SDS011;9958;33.196;-97.114;2023-05-15T01:35:05;7.22;;;5.65;;
19621;SDS011;9958;33.196;-97.114;2023-05-15T01:37:39;7.90;;;5.35;;
19621;SDS011;9958;33.196;-97.114;2023-05-15T01:40:14;9.23;;;5.78;;
19621;SDS011;9958;33.196;-97.114;2023-05-15T01:42:48;7.50;;;5.97;;
19621;SDS011;9958;33.196;-97.114;2023-05-15T01:45:21;10.30;;;5.60;;
19621;SDS011;9958;33.196;-97.114;2023-05-15T01:47:51;7.18;;;4.80;;
19621;SDS011;9958;33.196;-97.114;2023-05-15T01:50:20;9.75;;;5.95;;
19621;SDS011;9958;33.196;-97.114;2023-05-15T01:52:50;7.72;;;5.22;;
19621;SDS011;9958;33.196;-97.114;2023-05-15T01:55:22;6.68;;;5.93;;
19621;SDS011;9958;33.196;-97.114;2023-05-15T01:57:53;8.55;;;6.40;;
19621;SDS011;9958;33.196;-97.114;2023-05-15T02:00:23;9.00;;;6.55;;
19621;SDS011;9958;33.196;-97.114;2023-05-15T02:02:51;7.00;;;5.63;;
19621;SDS011;9958;33.196;-97.114;2023-05-15T02:05:20;8.48;;;5.82;;
19621;SDS011;9958;33.196;-97.114;2023-05-15T02:07:49;10.82;;;6.65;;
19621;SDS011;9958;33.196;-97.114;2023-05-15T02:10:18;11.40;;;7.40;;
19621;SDS011;9958;33.196;-97.114;2023-05-15T02:12:47;8.25;;;6.15;;
19621;SDS011;9958;33.196;-97.114;2023-05-15T02:15:18;8.55;;;5.80;;
19621;SDS011;9958;33.196;-97.114;2023-05-15T02:17:48;9.30;;;6.30;;
19621;SDS011;9958;33.196;-97.114;2023-05-15T02:20:16;7.82;;;5.43;;
19621;SDS011;9958;33.196;-97.114;2023-05-15T02:22:44;14.35;;;6.03;;
19621;SDS011;9958;33.196;-97.114;2023-05-15T02:25:13;12.93;;;5.82;;
19621;SDS011;9958;33.196;-97.114;2023-05-15T02:27:45;6.93;;;5.78;;
19621;SDS011;9958;33.196;-97.114;2023-05-15T02:30:22;9.13;;;6.05;;
19621;SDS011;9958;33.196;-97.114;2023-05-15T02:32:59;10.68;;;5.80;;
19621;SDS011;9958;33.196;-97.114;2023-05-15T02:35:36;7.50;;;5.78;;
19621;SDS011;9958;33.196;-97.114;2023-05-15T02:38:10;6.57;;;5.70;;
19621;SDS011;9958;33.196;-97.114;2023-05-15T02:40:43;6.97;;;5.55;;
19621;SDS011;9958;33.196;-97.114;2023-05-15T02:43:14;10.18;;;5.22;;
19621;SDS011;9958;33.196;-97.114;2023-05-15T02:45:47;5.82;;;4.72;;
19621;SDS011;9958;33.196;-97.114;2023-05-15T02:48:16;9.93;;;5.82;;
19621;SDS011;9958;33.196;-97.114;2023-05-15T02:50:45;7.72;;;5.10;;
19621;SDS011;9958;33.196;-97.114;2023-05-15T02:53:13;6.85;;;5.63;;
19621;SDS011;9958;33.196;-97.114;2023-05-15T02:55:43;10.02;;;5.25;;
19621;SDS011;9958;33.196;-97.114;2023-05-15T02:58:12;6.60;;;5.43;;
19621;SDS011;9958;33.196;-97.114;2023-05-15T03:00:41;8.02;;;4.68;;
19621;SDS011;9958;33.196;-97.114;2023-05-15T03:03:11;6.85;;;5.28;;
19621;SDS011;9958;33.196;-97.114;2023-05-15T03:05:39;7.20;;;5.07;;
19621;SDS011;9958;33.196;-97.114;2023-05-15T03:08:07;7.75;;;4.97;;
19621;SDS011;9958;33.196;-97.114;2023-05-15T03:10:36;6.68;;;4.95;;
19621;SDS011;9958;33.196;-97.114;2023-05-15T03:13:04;7.07;;;4.93;;
19621;SDS011;9958;33.196;-97.114;2023-05-15T03:15:32;6.85;;;4.97;;
19621;SDS011;9958;33.196;-97.114;2023-05-15T03:18:00;6.00;;;4.78;;
19621;SDS011;9958;33.196;-97.114;2023-05-15T03:20:30;8.05;;;4.75;;
19621;SDS011;9958;33.196;-97.114;2023-05-15T03:22:59;7.30;;;5.00;;
19621;SDS011;9958;33.196;-97.114;2023-05-15T03:25:27;6.22;;;4.47;;
19621;SDS011;9958;33.196;-97.114;2023-05-15T03:27:55;8.48;;;4.97;;
19621;SDS011;9958;33.196;-97.114;2023-05-15T03:30:24;7.63;;;4.82;;
19621;SDS011;9958;33.196;-97.114;2023-05-15T03:32:52;7.88;;;4.65;;
19621;SDS011;9958;33.196;-97.114;2023-05-15T03:35:22;8.93;;;5.22;;
19621;SDS011;9958;33.196;-97.114;2023-05-15T03:37:53;5.45;;;4.57;;
19621;SDS011;9958;33.196;-97.114;2023-05-15T03:40:21;7.20;;;5.20;;
19621;SDS011;9958;33.196;-97.114;2023-05-15T03:42:49;7.43;;;4.80;;
19621;SDS011;9958;33.196;-97.114;2023-05-15T03:45:18;5.47;;;4.68;;
19621;SDS011;9958;33.196;-97.114;2023-05-15T03:47:47;8.68;;;5.15;;
19621;SDS011;9958;33.196;-97.114;2023-05-15T03:50:15;5.75;;;4.13;;
19621;SDS011;9958;33.196;-97.114;2023-05-15T03:52:43;7.88;;;4.65;;
19621;SDS011;9958;33.196;-97.114;2023-05-15T03:55:13;7.05;;;5.03;;
19621;SDS011;9958;33.196;-97.114;2023-05-15T03:57:42;9.98;;;5.85;;
19621;SDS011;9958;33.196;-97.114;2023-05-15T04:00:11;5.95;;;4.78;;
19621;SDS011;9958;33.196;-97.114;2023-05-15T04:02:39;5.88;;;4.63;;
19621;SDS011;9958;33.196;-97.114;2023-05-15T04:05:08;9.00;;;5.78;;
19621;SDS011;9958;33.196;-97.114;2023-05-15T04:07:36;6.50;;;5.10;;
19621;SDS011;9958;33.196;-97.114;2023-05-15T04:10:05;5.35;;;4.70;;
19621;SDS011;9958;33.196;-97.114;2023-05-15T04:12:35;5.75;;;4.95;;
19621;SDS011;9958;33.196;-97.114;2023-05-15T04:15:13;6.82;;;4.93;;
19621;SDS011;9958;33.196;-97.114;2023-05-15T04:17:43;7.40;;;4.75;;
19621;SDS011;9958;33.196;-97.114;2023-05-15T04:20:14;6.97;;;4.93;;
19621;SDS011;9958;33.196;-97.114;2023-05-15T04:22:43;6.38;;;4.88;;
19621;SDS011;9958;33.196;-97.114;2023-05-15T04:25:12;9.52;;;5.15;;
19621;SDS011;9958;33.196;-97.114;2023-05-15T04:27:44;5.25;;;4.75;;
19621;SDS011;9958;33.196;-97.114;2023-05-15T04:30:13;8.13;;;4.78;;
19621;SDS011;9958;33.196;-97.114;2023-05-15T04:32:42;6.30;;;5.13;;
19621;SDS011;9958;33.196;-97.114;2023-05-15T04:35:10;7.10;;;5.10;;
19621;SDS011;9958;33.196;-97.114;2023-05-15T04:37:40;6.22;;;4.75;;
19621;SDS011;9958;33.196;-97.114;2023-05-15T04:40:10;8.15;;;4.70;;
19621;SDS011;9958;33.196;-97.114;2023-05-15T04:42:39;7.60;;;4.70;;
19621;SDS011;9958;33.196;-97.114;2023-05-15T04:45:09;7.22;;;4.90;;
19621;SDS011;9958;33.196;-97.114;2023-05-15T04:47:38;6.43;;;4.63;;
19621;SDS011;9958;33.196;-97.114;2023-05-15T04:50:07;5.40;;;4.43;;
19621;SDS011;9958;33.196;-97.114;2023-05-15T04:52:35;6.72;;;4.68;;
19621;SDS011;9958;33.196;-97.114;2023-05-15T04:55:04;5.68;;;4.35;;
19621;SDS011;9958;33.196;-97.114;2023-05-15T04:57:33;8.70;;;5.25;;
19621;SDS011;9958;33.196;-97.114;2023-05-15T05:00:01;6.20;;;4.53;;
19621;SDS011;9958;33.196;-97.114;2023-05-15T05:02:36;7.32;;;4.70;;
19621;SDS011;9958;33.196;-97.114;2023-05-15T05:05:04;6.50;;;5.05;;
19621;SDS011;9958;33.196;-97.114;2023-05-15T05:07:34;7.50;;;4.97;;
19621;SDS011;9958;33.196;-97.114;2023-05-15T05:10:02;6.97;;;4.70;;
19621;SDS011;9958;33.196;-97.114;2023-05-15T05:12:31;7.75;;;4.50;;
19621;SDS011;9958;33.196;-97.114;2023-05-15T05:15:00;6.40;;;4.72;;
19621;SDS011;9958;33.196;-97.114;2023-05-15T05:17:28;5.25;;;4.50;;
19621;SDS011;9958;33.196;-97.114;2023-05-15T05:19:58;6.93;;;5.07;;
19621;SDS011;9958;33.196;-97.114;2023-05-15T05:22:26;4.85;;;3.78;;
19621;SDS011;9958;33.196;-97.114;2023-05-15T05:24:54;6.05;;;4.32;;
19621;SDS011;9958;33.196;-97.114;2023-05-15T05:27:23;5.88;;;4.20;;
19621;SDS011;9958;33.196;-97.114;2023-05-15T05:29:52;5.68;;;4.65;;
19621;SDS011;9958;33.196;-97.114;2023-05-15T05:32:20;5.97;;;4.38;;
19621;SDS011;9958;33.196;-97.114;2023-05-15T05:34:49;5.28;;;3.92;;
19621;SDS011;9958;33.196;-97.114;2023-05-15T05:37:19;6.10;;;4.80;;
19621;SDS011;9958;33.196;-97.114;2023-05-15T05:39:47;9.52;;;5.05;;
19621;SDS011;9958;33.196;-97.114;2023-05-15T05:42:16;7.10;;;4.30;;
19621;SDS011;9958;33.196;-97.114;2023-05-15T05:44:44;4.65;;;3.92;;
19621;SDS011;9958;33.196;-97.114;2023-05-15T05:47:13;5.07;;;4.07;;
19621;SDS011;9958;33.196;-97.114;2023-05-15T05:49:41;4.60;;;3.92;;
19621;SDS011;9958;33.196;-97.114;2023-05-15T05:52:12;5.18;;;3.90;;
19621;SDS011;9958;33.196;-97.114;2023-05-15T05:54:43;5.82;;;3.97;;
19621;SDS011;9958;33.196;-97.114;2023-05-15T05:57:12;5.60;;;4.15;;
19621;SDS011;9958;33.196;-97.114;2023-05-15T05:59:41;5.47;;;4.18;;
19621;SDS011;9958;33.196;-97.114;2023-05-15T06:02:10;6.18;;;4.28;;
19621;SDS011;9958;33.196;-97.114;2023-05-15T06:04:39;7.22;;;4.43;;
19621;SDS011;9958;33.196;-97.114;2023-05-15T06:07:07;6.50;;;4.30;;
19621;SDS011;9958;33.196;-97.114;2023-05-15T06:09:36;5.35;;;4.18;;
19621;SDS011;9958;33.196;-97.114;2023-05-15T06:12:06;8.90;;;4.03;;
19621;SDS011;9958;33.196;-97.114;2023-05-15T06:14:35;5.72;;;4.25;;
19621;SDS011;9958;33.196;-97.114;2023-05-15T06:17:04;4.18;;;3.78;;
19621;SDS011;9958;33.196;-97.114;2023-05-15T06:19:32;8.50;;;3.83;;
19621;SDS011;9958;33.196;-97.114;2023-05-15T06:22:01;8.88;;;4.45;;
19621;SDS011;9958;33.196;-97.114;2023-05-15T06:24:29;4.18;;;3.78;;
19621;SDS011;9958;33.196;-97.114;2023-05-15T06:26:58;5.13;;;3.83;;
19621;SDS011;9958;33.196;-97.114;2023-05-15T06:29:28;6.95;;;3.72;;
19621;SDS011;9958;33.196;-97.114;2023-05-15T06:31:57;7.40;;;4.22;;
19621;SDS011;9958;33.196;-97.114;2023-05-15T06:34:25;8.93;;;4.38;;
19621;SDS011;9958;33.196;-97.114;2023-05-15T06:36:54;7.38;;;4.43;;
19621;SDS011;9958;33.196;-97.114;2023-05-15T06:39:22;5.80;;;4.78;;
19621;SDS011;9958;33.196;-97.114;2023-05-15T06:41:51;5.85;;;4.28;;
19621;SDS011;9958;33.196;-97.114;2023-05-15T06:44:23;6.03;;;4.35;;
19621;SDS011;9958;33.196;-97.114;2023-05-15T06:46:53;5.93;;;4.05;;
19621;SDS011;9958;33.196;-97.114;2023-05-15T06:49:21;5.97;;;4.40;;
19621;SDS011;9958;33.196;-97.114;2023-05-15T06:51:50;5.07;;;4.20;;
19621;SDS011;9958;33.196;-97.114;2023-05-15T06:54:19;5.88;;;3.95;;
19621;SDS011;9958;33.196;-97.114;2023-05-15T06:56:47;5.78;;;4.50;;
19621;SDS011;9958;33.196;-97.114;2023-05-15T06:59:16;5.70;;;4.57;;
19621;SDS011;9958;33.196;-97.114;2023-05-15T07:01:44;5.63;;;4.47;;
19621;SDS011;9958;33.196;-97.114;2023-05-15T07:04:14;5.50;;;4.18;;
19621;SDS011;9958;33.196;-97.114;2023-05-15T07:06:42;5.15;;;4.00;;
19621;SDS011;9958;33.196;-97.114;2023-05-15T07:09:11;5.25;;;3.50;;
19621;SDS011;9958;33.196;-97.114;2023-05-15T07:11:39;5.43;;;4.22;;
19621;SDS011;9958;33.196;-97.114;2023-05-15T07:14:07;6.07;;;3.67;;
19621;SDS011;9958;33.196;-97.114;2023-05-15T07:16:36;4.18;;;3.20;;
19621;SDS011;9958;33.196;-97.114;2023-05-15T07:19:04;5.03;;;3.90;;
19621;SDS011;9958;33.196;-97.114;2023-05-15T07:21:35;5.22;;;3.88;;
19621;SDS011;9958;33.196;-97.114;2023-05-15T07:24:05;4.55;;;3.70;;
19621;SDS011;9958;33.196;-97.114;2023-05-15T07:26:33;4.68;;;3.88;;
19621;SDS011;9958;33.196;-97.114;2023-05-15T07:29:02;7.70;;;4.25;;
19621;SDS011;9958;33.196;-97.114;2023-05-15T07:31:30;4.43;;;3.60;;
19621;SDS011;9958;33.196;-97.114;2023-05-15T07:33:59;4.93;;;3.53;;
19621;SDS011;9958;33.196;-97.114;2023-05-15T07:36:27;5.55;;;3.80;;
19621;SDS011;9958;33.196;-97.114;2023-05-15T07:38:57;5.68;;;3.60;;
19621;SDS011;9958;33.196;-97.114;2023-05-15T07:41:25;4.65;;;3.40;;
19621;SDS011;9958;33.196;-97.114;2023-05-15T07:43:55;4.60;;;4.10;;
19621;SDS011;9958;33.196;-97.114;2023-05-15T07:46:23;3.92;;;3.50;;
19621;SDS011;9958;33.196;-97.114;2023-05-15T07:48:52;6.03;;;3.80;;
19621;SDS011;9958;33.196;-97.114;2023-05-15T07:51:20;6.15;;;3.83;;
19621;SDS011;9958;33.196;-97.114;2023-05-15T07:53:48;5.10;;;4.00;;
19621;SDS011;9958;33.196;-97.114;2023-05-15T08:03:03;5.03;;;3.95;;
19621;SDS011;9958;33.196;-97.114;2023-05-15T08:05:31;7.60;;;4.60;;
19621;SDS011;9958;33.196;-97.114;2023-05-15T08:08:00;6.43;;;4.72;;
19621;SDS011;9958;33.196;-97.114;2023-05-15T08:10:28;6.45;;;4.78;;
19621;SDS011;9958;33.196;-97.114;2023-05-15T08:12:57;5.75;;;4.70;;
19621;SDS011;9958;33.196;-97.114;2023-05-15T08:15:25;6.80;;;5.15;;
19621;SDS011;9958;33.196;-97.114;2023-05-15T08:17:53;8.80;;;5.28;;
19621;SDS011;9958;33.196;-97.114;2023-05-15T08:20:23;10.07;;;6.53;;
19621;SDS011;9958;33.196;-97.114;2023-05-15T08:22:52;7.93;;;5.65;;
19621;SDS011;9958;33.196;-97.114;2023-05-15T08:25:20;7.13;;;5.20;;
19621;SDS011;9958;33.196;-97.114;2023-05-15T08:27:48;8.63;;;6.45;;
19621;SDS011;9958;33.196;-97.114;2023-05-15T08:30:17;7.88;;;5.90;;
19621;SDS011;9958;33.196;-97.114;2023-05-15T08:32:45;6.78;;;5.45;;
19621;SDS011;9958;33.196;-97.114;2023-05-15T08:35:13;10.07;;;4.65;;
19621;SDS011;9958;33.196;-97.114;2023-05-15T08:37:43;8.85;;;4.85;;
19621;SDS011;9958;33.196;-97.114;2023-05-15T08:40:12;8.40;;;5.70;;
19621;SDS011;9958;33.196;-97.114;2023-05-15T08:42:42;6.20;;;5.20;;
19621;SDS011;9958;33.196;-97.114;2023-05-15T08:45:11;9.23;;;5.35;;
19621;SDS011;9958;33.196;-97.114;2023-05-15T08:47:40;9.00;;;5.75;;
19621;SDS011;9958;33.196;-97.114;2023-05-15T08:50:09;10.07;;;5.15;;
19621;SDS011;9958;33.196;-97.114;2023-05-15T08:52:40;7.95;;;5.95;;
19621;SDS011;9958;33.196;-97.114;2023-05-15T08:55:11;7.45;;;5.45;;
19621;SDS011;9958;33.196;-97.114;2023-05-15T08:57:41;8.52;;;6.00;;
19621;SDS011;9958;33.196;-97.114;2023-05-15T09:00:10;8.70;;;6.10;;
19621;SDS011;9958;33.196;-97.114;2023-05-15T09:02:39;8.25;;;5.85;;
19621;SDS011;9958;33.196;-97.114;2023-05-15T09:05:08;7.95;;;5.43;;
19621;SDS011;9958;33.196;-97.114;2023-05-15T09:07:37;9.52;;;5.75;;
19621;SDS011;9958;33.196;-97.114;2023-05-15T09:10:07;7.93;;;5.53;;
19621;SDS011;9958;33.196;-97.114;2023-05-15T09:12:38;8.02;;;5.97;;
19621;SDS011;9958;33.196;-97.114;2023-05-15T09:15:09;7.32;;;5.80;;
19621;SDS011;9958;33.196;-97.114;2023-05-15T09:17:40;7.82;;;5.78;;
19621;SDS011;9958;33.196;-97.114;2023-05-15T09:20:23;7.25;;;5.03;;
19621;SDS011;9958;33.196;-97.114;2023-05-15T09:22:53;7.85;;;5.53;;
19621;SDS011;9958;33.196;-97.114;2023-05-15T09:25:31;8.35;;;6.18;;
19621;SDS011;9958;33.196;-97.114;2023-05-15T09:28:05;8.07;;;6.88;;
19621;SDS011;9958;33.196;-97.114;2023-05-15T09:30:36;9.85;;;7.03;;
19621;SDS011;9958;33.196;-97.114;2023-05-15T09:33:05;8.68;;;6.53;;
19621;SDS011;9958;33.196;-97.114;2023-05-15T09:35:35;10.40;;;6.63;;
19621;SDS011;9958;33.196;-97.114;2023-05-15T09:38:07;7.82;;;5.75;;
19621;SDS011;9958;33.196;-97.114;2023-05-15T09:40:36;9.02;;;5.55;;
19621;SDS011;9958;33.196;-97.114;2023-05-15T09:43:07;9.45;;;6.53;;
19621;SDS011;9958;33.196;-97.114;2023-05-15T09:45:37;11.73;;;6.30;;
19621;SDS011;9958;33.196;-97.114;2023-05-15T09:48:06;8.13;;;6.40;;
19621;SDS011;9958;33.196;-97.114;2023-05-15T09:50:36;7.90;;;5.82;;
19621;SDS011;9958;33.196;-97.114;2023-05-15T09:53:05;10.65;;;7.10;;
19621;SDS011;9958;33.196;-97.114;2023-05-15T09:55:37;9.00;;;6.20;;
19621;SDS011;9958;33.196;-97.114;2023-05-15T09:58:09;8.02;;;6.70;;
19621;SDS011;9958;33.196;-97.114;2023-05-15T10:00:38;9.80;;;6.00;;
19621;SDS011;9958;33.196;-97.114;2023-05-15T10:03:08;8.43;;;5.97;;
19621;SDS011;9958;33.196;-97.114;2023-05-15T10:05:37;8.23;;;6.32;;
19621;SDS011;9958;33.196;-97.114;2023-05-15T10:08:06;8.90;;;6.65;;
19621;SDS011;9958;33.196;-97.114;2023-05-15T10:10:34;9.43;;;6.82;;
19621;SDS011;9958;33.196;-97.114;2023-05-15T10:13:02;6.55;;;5.72;;
19621;SDS011;9958;33.196;-97.114;2023-05-15T10:15:33;8.45;;;6.50;;
19621;SDS011;9958;33.196;-97.114;2023-05-15T10:18:02;9.70;;;6.05;;
19621;SDS011;9958;33.196;-97.114;2023-05-15T10:20:31;8.43;;;7.35;;
19621;SDS011;9958;33.196;-97.114;2023-05-15T10:23:02;7.78;;;6.35;;
19621;SDS011;9958;33.196;-97.114;2023-05-15T10:25:32;7.82;;;6.50;;
19621;SDS011;9958;33.196;-97.114;2023-05-15T10:28:07;8.55;;;6.13;;
19621;SDS011;9958;33.196;-97.114;2023-05-15T10:30:39;8.45;;;6.70;;
19621;SDS011;9958;33.196;-97.114;2023-05-15T10:33:08;11.85;;;6.75;;
19621;SDS011;9958;33.196;-97.114;2023-05-15T10:35:39;10.20;;;7.38;;
19621;SDS011;9958;33.196;-97.114;2023-05-15T10:38:08;10.38;;;6.60;;
19621;SDS011;9958;33.196;-97.114;2023-05-15T10:40:38;12.65;;;7.15;;
19621;SDS011;9958;33.196;-97.114;2023-05-15T10:43:08;7.93;;;6.15;;
19621;SDS011;9958;33.196;-97.114;2023-05-15T10:45:39;11.45;;;6.97;;
19621;SDS011;9958;33.196;-97.114;2023-05-15T10:48:08;10.45;;;7.28;;
19621;SDS011;9958;33.196;-97.114;2023-05-15T10:50:38;8.48;;;6.80;;
19621;SDS011;9958;33.196;-97.114;2023-05-15T10:53:08;9.90;;;7.15;;
19621;SDS011;9958;33.196;-97.114;2023-05-15T10:55:37;11.95;;;6.57;;
19621;SDS011;9958;33.196;-97.114;2023-05-15T10:58:07;10.60;;;7.38;;
19621;SDS011;9958;33.196;-97.114;2023-05-15T11:00:42;11.65;;;7.28;;
19621;SDS011;9958;33.196;-97.114;2023-05-15T11:03:12;9.70;;;6.45;;
19621;SDS011;9958;33.196;-97.114;2023-05-15T11:08:35;14.63;;;7.18;;
19621;SDS011;9958;33.196;-97.114;2023-05-15T11:11:04;7.63;;;6.38;;
19621;SDS011;9958;33.196;-97.114;2023-05-15T11:16:57;9.27;;;6.32;;
19621;SDS011;9958;33.196;-97.114;2023-05-15T11:19:34;10.32;;;7.35;;
19621;SDS011;9958;33.196;-97.114;2023-05-15T11:22:27;15.75;;;7.05;;
19621;SDS011;9958;33.196;-97.114;2023-05-15T11:24:59;7.60;;;5.88;;
19621;SDS011;9958;33.196;-97.114;2023-05-15T11:27:29;9.70;;;6.47;;
19621;SDS011;9958;33.196;-97.114;2023-05-15T11:30:02;9.10;;;6.80;;
19621;SDS011;9958;33.196;-97.114;2023-05-15T11:32:40;9.88;;;6.60;;
19621;SDS011;9958;33.196;-97.114;2023-05-15T11:35:10;9.85;;;6.60;;
19621;SDS011;9958;33.196;-97.114;2023-05-15T11:37:41;8.98;;;6.10;;
19621;SDS011;9958;33.196;-97.114;2023-05-15T11:40:12;11.23;;;6.65;;
19621;SDS011;9958;33.196;-97.114;2023-05-15T11:42:42;11.40;;;7.13;;
19621;SDS011;9958;33.196;-97.114;2023-05-15T11:45:25;11.80;;;7.47;;
19621;SDS011;9958;33.196;-97.114;2023-05-15T11:47:58;10.23;;;6.80;;
19621;SDS011;9958;33.196;-97.114;2023-05-15T11:50:29;13.02;;;7.15;;
19621;SDS011;9958;33.196;-97.114;2023-05-15T11:53:00;13.95;;;7.63;;
19621;SDS011;9958;33.196;-97.114;2023-05-15T11:55:30;12.73;;;8.95;;
19621;SDS011;9958;33.196;-97.114;2023-05-15T11:57:59;11.43;;;7.28;;
19621;SDS011;9958;33.196;-97.114;2023-05-15T12:00:28;12.65;;;7.03;;
19621;SDS011;9958;33.196;-97.114;2023-05-15T12:02:58;11.20;;;7.47;;
19621;SDS011;9958;33.196;-97.114;2023-05-15T12:05:28;13.20;;;7.22;;
19621;SDS011;9958;33.196;-97.114;2023-05-15T12:07:56;12.75;;;8.30;;
19621;SDS011;9958;33.196;-97.114;2023-05-15T12:10:25;15.18;;;8.07;;
19621;SDS011;9958;33.196;-97.114;2023-05-15T12:12:53;15.02;;;9.10;;
19621;SDS011;9958;33.196;-97.114;2023-05-15T12:15:22;11.75;;;7.90;;
19621;SDS011;9958;33.196;-97.114;2023-05-15T12:17:50;12.80;;;8.00;;
19621;SDS011;9958;33.196;-97.114;2023-05-15T12:20:20;13.30;;;8.32;;
19621;SDS011;9958;33.196;-97.114;2023-05-15T12:22:49;12.68;;;8.70;;
19621;SDS011;9958;33.196;-97.114;2023-05-15T12:25:17;14.95;;;9.30;;
19621;SDS011;9958;33.196;-97.114;2023-05-15T12:27:45;19.75;;;9.88;;
19621;SDS011;9958;33.196;-97.114;2023-05-15T12:30:14;15.05;;;8.65;;
19621;SDS011;9958;33.196;-97.114;2023-05-15T12:32:43;11.93;;;7.05;;
19621;SDS011;9958;33.196;-97.114;2023-05-15T12:35:11;8.75;;;7.00;;
19621;SDS011;9958;33.196;-97.114;2023-05-15T12:37:41;14.07;;;8.85;;
19621;SDS011;9958;33.196;-97.114;2023-05-15T12:40:11;13.23;;;8.00;;
19621;SDS011;9958;33.196;-97.114;2023-05-15T12:42:40;10.70;;;7.88;;
19621;SDS011;9958;33.196;-97.114;2023-05-15T12:45:13;10.90;;;6.90;;
19621;SDS011;9958;33.196;-97.114;2023-05-15T12:47:43;11.70;;;7.57;;
19621;SDS011;9958;33.196;-97.114;2023-05-15T12:50:12;9.95;;;6.13;;
19621;SDS011;9958;33.196;-97.114;2023-05-15T12:52:49;11.02;;;6.22;;
19621;SDS011;9958;33.196;-97.114;2023-05-15T12:55:22;5.90;;;5.30;;
19621;SDS011;9958;33.196;-97.114;2023-05-15T12:57:51;7.07;;;5.47;;
19621;SDS011;9958;33.196;-97.114;2023-05-15T13:00:22;6.97;;;5.70;;
19621;SDS011;9958;33.196;-97.114;2023-05-15T13:02:51;8.00;;;5.70;;
19621;SDS011;9958;33.196;-97.114;2023-05-15T13:05:21;6.25;;;4.50;;
19621;SDS011;9958;33.196;-97.114;2023-05-15T13:07:51;5.63;;;4.50;;
19621;SDS011;9958;33.196;-97.114;2023-05-15T13:10:20;5.03;;;4.53;;
19621;SDS011;9958;33.196;-97.114;2023-05-15T13:12:49;5.25;;;4.55;;
19621;SDS011;9958;33.196;-97.114;2023-05-15T13:15:24;6.90;;;4.20;;
19621;SDS011;9958;33.196;-97.114;2023-05-15T13:17:58;5.75;;;4.20;;
19621;SDS011;9958;33.196;-97.114;2023-05-15T13:20:28;6.43;;;3.90;;
19621;SDS011;9958;33.196;-97.114;2023-05-15T13:23:00;6.10;;;3.95;;
19621;SDS011;9958;33.196;-97.114;2023-05-15T13:25:29;4.72;;;4.18;;
19621;SDS011;9958;33.196;-97.114;2023-05-15T13:27:58;7.68;;;4.47;;
19621;SDS011;9958;33.196;-97.114;2023-05-15T13:30:29;5.28;;;3.60;;
19621;SDS011;9958;33.196;-97.114;2023-05-15T13:32:58;5.30;;;3.72;;
19621;SDS011;9958;33.196;-97.114;2023-05-15T13:35:27;6.43;;;4.25;;
19621;SDS011;9958;33.196;-97.114;2023-05-15T13:37:55;4.10;;;3.53;;
19621;SDS011;9958;33.196;-97.114;2023-05-15T13:40:25;8.32;;;3.92;;
19621;SDS011;9958;33.196;-97.114;2023-05-15T13:42:53;5.15;;;4.22;;
19621;SDS011;9958;33.196;-97.114;2023-05-15T13:45:22;7.45;;;3.40;;
19621;SDS011;9958;33.196;-97.114;2023-05-15T13:47:50;3.20;;;2.90;;
19621;SDS011;9958;33.196;-97.114;2023-05-15T13:50:18;3.67;;;2.58;;
19621;SDS011;9958;33.196;-97.114;2023-05-15T13:52:47;2.45;;;2.17;;
19621;SDS011;9958;33.196;-97.114;2023-05-15T13:55:15;5.78;;;2.75;;
19621;SDS011;9958;33.196;-97.114;2023-05-15T13:57:45;3.67;;;1.80;;
19621;SDS011;9958;33.196;-97.114;2023-05-15T14:00:14;2.55;;;2.13;;
19621;SDS011;9958;33.196;-97.114;2023-05-15T14:02:43;3.22;;;2.00;;
19621;SDS011;9958;33.196;-97.114;2023-05-15T14:05:12;2.38;;;1.85;;
19621;SDS011;9958;33.196;-97.114;2023-05-15T14:07:41;3.00;;;2.10;;
19621;SDS011;9958;33.196;-97.114;2023-05-15T14:10:10;6.38;;;2.65;;
19621;SDS011;9958;33.196;-97.114;2023-05-15T14:12:39;3.83;;;2.40;;
19621;SDS011;9958;33.196;-97.114;2023-05-15T14:15:10;2.50;;;2.30;;
19621;SDS011;9958;33.196;-97.114;2023-05-15T14:17:38;3.75;;;2.80;;
19621;SDS011;9958;33.196;-97.114;2023-05-15T14:20:07;2.53;;;2.20;;
19621;SDS011;9958;33.196;-97.114;2023-05-15T14:22:37;2.13;;;1.92;;
19621;SDS011;9958;33.196;-97.114;2023-05-15T14:25:06;2.50;;;2.28;;
19621;SDS011;9958;33.196;-97.114;2023-05-15T14:27:35;3.72;;;2.03;;
19621;SDS011;9958;33.196;-97.114;2023-05-15T14:30:04;3.00;;;2.70;;
19621;SDS011;9958;33.196;-97.114;2023-05-15T14:32:35;3.95;;;3.15;;
19621;SDS011;9958;33.196;-97.114;2023-05-15T14:35:03;5.07;;;3.22;;
19621;SDS011;9958;33.196;-97.114;2023-05-15T14:37:32;4.97;;;3.55;;
19621;SDS011;9958;33.196;-97.114;2023-05-15T14:40:00;4.38;;;3.78;;
19621;SDS011;9958;33.196;-97.114;2023-05-15T14:42:29;4.30;;;3.72;;
19621;SDS011;9958;33.196;-97.114;2023-05-15T14:44:57;5.25;;;3.50;;
19621;SDS011;9958;33.196;-97.114;2023-05-15T14:47:26;4.13;;;3.63;;
19621;SDS011;9958;33.196;-97.114;2023-05-15T14:49:56;4.03;;;3.50;;
19621;SDS011;9958;33.196;-97.114;2023-05-15T14:52:24;6.93;;;4.40;;
19621;SDS011;9958;33.196;-97.114;2023-05-15T14:54:52;4.75;;;3.38;;
19621;SDS011;9958;33.196;-97.114;2023-05-15T14:57:20;5.07;;;2.80;;
19621;SDS011;9958;33.196;-97.114;2023-05-15T14:59:49;2.72;;;2.10;;
19621;SDS011;9958;33.196;-97.114;2023-05-15T15:02:17;2.08;;;1.88;;
19621;SDS011;9958;33.196;-97.114;2023-05-15T15:04:45;2.00;;;1.90;;